createdAt,value
2018-08-24T00:02:06.847Z,17.62
2018-08-24T00:04:35.811Z,17.57
2018-08-24T00:07:04.811Z,17.56
2018-08-24T00:09:33.696Z,17.58
2018-08-24T00:12:02.561Z,17.49
2018-08-24T00:14:31.484Z,17.40
2018-08-24T00:17:00.393Z,17.33
2018-08-24T00:19:29.481Z,17.30
2018-08-24T00:21:58.310Z,17.26
2018-08-24T00:24:27.174Z,17.16
2018-08-24T00:26:56.101Z,17.11
2018-08-24T00:29:25.003Z,17.10
2018-08-24T00:31:53.912Z,17.12
2018-08-24T00:34:22.931Z,17.13
2018-08-24T00:36:51.803Z,17.09
2018-08-24T00:39:20.764Z,17.14
2018-08-24T00:41:49.617Z,17.12
2018-08-24T00:44:18.525Z,17.11
2018-08-24T00:46:47.454Z,17.11
2018-08-24T00:49:16.357Z,17.11
2018-08-24T00:51:45.212Z,17.17
2018-08-24T00:54:14.154Z,17.15
2018-08-24T00:56:43.027Z,17.20
2018-08-24T00:59:11.867Z,17.28
2018-08-24T01:01:40.742Z,17.54
2018-08-24T01:04:09.687Z,17.31
2018-08-24T01:06:40.643Z,17.27
2018-08-24T01:09:08.901Z,17.29
2018-08-24T01:11:55.446Z,17.26
2018-08-24T01:14:24.401Z,17.59
2018-08-24T01:17:10.914Z,17.36
2018-08-24T01:19:43.564Z,17.71
2018-08-24T01:22:12.721Z,17.46
2018-08-24T01:24:41.610Z,17.34
2018-08-24T01:27:10.789Z,17.29
2018-08-24T01:29:40.868Z,17.23
2018-08-24T01:32:12.286Z,17.16
2018-08-24T01:34:41.095Z,17.11
2018-08-24T01:37:09.988Z,17.08
2018-08-24T01:39:38.868Z,17.02
2018-08-24T01:42:07.734Z,17.02
2018-08-24T01:44:36.604Z,17.01
2018-08-24T01:47:05.599Z,17.21
2018-08-24T01:49:34.521Z,17.03
2018-08-24T01:52:03.329Z,16.97
2018-08-24T01:54:32.216Z,16.95
2018-08-24T01:57:01.159Z,16.89
2018-08-24T01:59:30.087Z,16.88
2018-08-24T02:01:59.013Z,16.81
2018-08-24T02:04:27.876Z,16.79
2018-08-24T02:06:56.818Z,16.79
2018-08-24T02:09:25.713Z,16.78
2018-08-24T02:11:54.578Z,16.76
2018-08-24T02:14:41.941Z,16.76
2018-08-24T02:17:28.653Z,16.72
2018-08-24T02:20:15.394Z,17.07
2018-08-24T02:22:44.302Z,16.77
2018-08-24T02:25:13.226Z,16.66
2018-08-24T02:27:42.114Z,16.69
2018-08-24T02:30:11.008Z,16.72
2018-08-24T02:32:39.848Z,16.69
2018-08-24T02:35:08.807Z,16.63
2018-08-24T02:37:37.724Z,16.70
2018-08-24T02:40:06.788Z,17.08
2018-08-24T02:42:35.681Z,16.85
2018-08-24T02:45:04.691Z,17.23
2018-08-24T02:47:33.617Z,16.95
2018-08-24T02:50:02.434Z,16.91
2018-08-24T02:52:31.363Z,16.92
2018-08-24T02:55:00.325Z,16.90
2018-08-24T02:57:29.155Z,16.86
2018-08-24T02:59:58.390Z,16.85
2018-08-24T03:02:27.605Z,16.82
2018-08-24T03:04:56.552Z,16.86
2018-08-24T03:07:25.914Z,17.25
2018-08-24T03:09:54.909Z,17.04
2018-08-24T03:12:23.779Z,16.95
2018-08-24T03:14:52.646Z,16.97
2018-08-24T03:17:38.896Z,17.01
2018-08-24T03:20:07.802Z,16.91
2018-08-24T03:22:38.209Z,16.92
2018-08-24T03:25:05.571Z,16.98
2018-08-24T03:27:34.519Z,16.97
2018-08-24T03:30:03.595Z,17.33
2018-08-24T03:32:32.468Z,17.14
2018-08-24T03:35:01.345Z,17.09
2018-08-24T03:37:30.295Z,17.06
2018-08-24T03:39:59.116Z,17.10
2018-08-24T03:42:27.970Z,17.10
2018-08-24T03:44:56.858Z,17.14
2018-08-24T03:47:25.789Z,17.23
2018-08-24T03:49:56.816Z,17.22
2018-08-24T03:52:23.621Z,17.24
2018-08-24T03:54:52.563Z,17.21
2018-08-24T03:57:21.451Z,17.23
2018-08-24T03:59:50.336Z,17.63
2018-08-24T04:02:19.275Z,17.49
2018-08-24T04:04:48.188Z,17.50
2018-08-24T04:07:17.045Z,17.48
2018-08-24T04:09:46.014Z,17.50
2018-08-24T04:12:14.911Z,17.46
2018-08-24T04:14:43.797Z,17.51
2018-08-24T04:17:30.386Z,17.55
2018-08-24T04:19:59.351Z,17.47
2018-08-24T04:22:28.227Z,17.50
2018-08-24T04:24:57.177Z,17.53
2018-08-24T04:27:26.044Z,17.52
2018-08-24T04:29:55.016Z,17.83
2018-08-24T04:32:23.964Z,17.52
2018-08-24T04:34:52.905Z,17.62
2018-08-24T04:37:21.763Z,17.63
2018-08-24T04:39:50.687Z,17.57
2018-08-24T04:42:19.761Z,17.59
2018-08-24T04:44:51.519Z,17.66
2018-08-24T04:47:17.644Z,17.67
2018-08-24T04:49:46.603Z,17.67
2018-08-24T04:52:15.596Z,17.72
2018-08-24T04:54:44.589Z,18.05
2018-08-24T04:57:13.560Z,17.89
2018-08-24T04:59:42.442Z,17.86
2018-08-24T05:02:11.836Z,17.84
2018-08-24T05:04:40.764Z,17.79
2018-08-24T05:07:09.719Z,17.74
2018-08-24T05:09:38.667Z,18.03
2018-08-24T05:12:07.695Z,17.76
2018-08-24T05:14:36.641Z,17.72
2018-08-24T05:17:05.650Z,17.69
2018-08-24T05:19:34.601Z,17.62
2018-08-24T05:22:06.321Z,17.62
2018-08-24T05:24:35.327Z,17.56
2018-08-24T05:27:04.309Z,17.50
2018-08-24T05:29:33.284Z,17.49
2018-08-24T05:32:02.303Z,17.45
2018-08-24T05:34:31.343Z,17.41
2018-08-24T05:37:00.135Z,17.41
2018-08-24T05:39:29.046Z,17.72
2018-08-24T05:41:57.978Z,17.47
2018-08-24T05:44:26.865Z,17.43
2018-08-24T05:46:55.776Z,17.41
2018-08-24T05:49:24.652Z,17.42
2018-08-24T05:51:53.630Z,17.39
2018-08-24T05:54:22.545Z,17.30
2018-08-24T05:56:51.468Z,17.28
2018-08-24T05:59:23.171Z,17.24
2018-08-24T06:01:52.166Z,17.23
2018-08-24T06:04:20.981Z,17.28
2018-08-24T06:06:49.862Z,17.28
2018-08-24T06:09:18.781Z,17.43
2018-08-24T06:11:47.739Z,17.45
2018-08-24T06:14:16.596Z,17.52
2018-08-24T06:17:02.981Z,17.47
2018-08-24T06:19:33.543Z,17.46
2018-08-24T06:22:02.484Z,17.81
2018-08-24T06:24:31.593Z,17.59
2018-08-24T06:27:00.430Z,17.59
2018-08-24T06:29:29.386Z,17.60
2018-08-24T06:31:58.271Z,17.50
2018-08-24T06:34:27.188Z,17.40
2018-08-24T06:36:56.119Z,17.45
2018-08-24T06:39:25.115Z,17.36
2018-08-24T06:41:54.069Z,17.29
2018-08-24T06:44:27.840Z,17.21
2018-08-24T06:46:55.098Z,17.19
2018-08-24T06:49:24.032Z,17.41
2018-08-24T06:51:53.017Z,17.69
2018-08-24T06:54:21.908Z,17.80
2018-08-24T06:56:50.804Z,18.21
2018-08-24T06:59:19.695Z,18.69
2018-08-24T07:01:48.778Z,19.13
2018-08-24T07:04:17.658Z,19.37
2018-08-24T07:06:46.552Z,19.29
2018-08-24T07:09:15.499Z,19.28
2018-08-24T07:11:44.380Z,19.30
2018-08-24T07:14:13.366Z,19.68
2018-08-24T07:16:42.511Z,19.98
2018-08-24T07:19:13.255Z,20.57
2018-08-24T07:21:40.584Z,22.17
2018-08-24T07:24:09.471Z,22.81
2018-08-24T07:26:38.394Z,22.24
2018-08-24T07:29:07.272Z,22.17
2018-08-24T07:31:36.188Z,21.39
2018-08-24T07:34:05.085Z,21.85
2018-08-24T07:36:34.063Z,22.60
2018-08-24T07:39:03.042Z,22.80
2018-08-24T07:41:32.079Z,23.35
2018-08-24T07:44:00.854Z,24.27
2018-08-24T07:46:33.008Z,24.63
2018-08-24T07:49:01.986Z,23.99
2018-08-24T07:51:31.031Z,24.92
2018-08-24T07:53:59.892Z,26.56
2018-08-24T07:56:29.810Z,27.40
2018-08-24T07:59:02.094Z,27.61
2018-08-24T08:01:29.196Z,28.14
2018-08-24T08:04:08.331Z,29.36
2018-08-24T08:06:37.355Z,30.40
2018-08-24T08:09:07.547Z,30.84
2018-08-24T08:11:40.300Z,31.05
2018-08-24T08:14:09.693Z,31.92
2018-08-24T08:16:38.543Z,31.64
2018-08-24T08:19:07.558Z,32.04
2018-08-24T08:21:36.493Z,32.16
2018-08-24T08:24:05.493Z,32.94
2018-08-24T08:26:34.485Z,33.09
2018-08-24T08:29:03.399Z,33.03
2018-08-24T08:31:32.366Z,32.95
2018-08-24T08:34:01.552Z,33.39
2018-08-24T08:36:32.631Z,31.62
2018-08-24T08:38:59.374Z,30.18
2018-08-24T08:41:28.307Z,29.29
2018-08-24T08:43:57.168Z,28.59
2018-08-24T08:46:26.277Z,29.16
2018-08-24T08:48:55.300Z,29.04
2018-08-24T08:51:24.302Z,26.79
2018-08-24T08:53:53.112Z,28.24
2018-08-24T08:56:22.105Z,29.84
2018-08-24T08:58:51.167Z,31.49
2018-08-24T09:01:20.227Z,32.49
2018-08-24T09:03:49.209Z,31.67
2018-08-24T09:06:20.203Z,30.76
2018-08-24T09:08:47.085Z,30.85
2018-08-24T09:11:16.014Z,31.52
2018-08-24T09:13:44.956Z,30.30
2018-08-24T09:16:13.908Z,28.77
2018-08-24T09:19:00.478Z,28.81
2018-08-24T09:21:47.306Z,29.21
2018-08-24T09:24:34.068Z,29.50
2018-08-24T09:27:21.138Z,30.60
2018-08-24T09:29:50.122Z,31.06
2018-08-24T09:32:19.107Z,29.07
2018-08-24T09:34:47.991Z,27.67
2018-08-24T09:37:35.795Z,28.92
2018-08-24T09:40:05.196Z,29.84
2018-08-24T09:42:34.286Z,30.17
2018-08-24T09:45:03.602Z,29.08
2018-08-24T09:47:50.375Z,28.22
2018-08-24T09:50:36.828Z,26.02
2018-08-24T09:53:23.645Z,26.42
2018-08-24T09:55:52.542Z,27.31
2018-08-24T09:58:21.488Z,28.57
2018-08-24T10:01:12.134Z,29.33
2018-08-24T10:03:58.693Z,29.71
2018-08-24T10:06:45.520Z,27.79
2018-08-24T10:09:15.451Z,26.57
2018-08-24T10:11:44.407Z,26.84
2018-08-24T10:14:15.227Z,27.96
2018-08-24T10:16:44.126Z,28.92
2018-08-24T10:19:14.268Z,29.63
2018-08-24T10:21:43.155Z,29.06
2018-08-24T10:24:12.222Z,28.32
2018-08-24T10:26:41.106Z,27.07
2018-08-24T10:29:10.116Z,25.86
2018-08-24T10:31:38.982Z,25.19
2018-08-24T10:34:07.864Z,24.73
2018-08-24T10:36:36.872Z,25.94
2018-08-24T10:39:11.502Z,27.15
2018-08-24T10:41:41.416Z,28.43
2018-08-24T10:44:10.294Z,28.85
2018-08-24T10:46:39.208Z,29.65
2018-08-24T10:49:08.188Z,29.70
2018-08-24T10:51:37.271Z,29.80
2018-08-24T10:54:06.146Z,29.41
2018-08-24T10:56:35.062Z,29.63
2018-08-24T10:59:04.091Z,28.62
2018-08-24T11:01:33.079Z,27.80
2018-08-24T11:04:07.725Z,26.80
2018-08-24T11:06:36.669Z,25.94
2018-08-24T11:09:11.513Z,25.36
2018-08-24T11:11:40.416Z,24.33
2018-08-24T11:14:11.537Z,24.16
2018-08-24T11:16:40.489Z,24.89
2018-08-24T11:19:09.370Z,25.58
2018-08-24T11:21:40.157Z,26.74
2018-08-24T11:24:10.670Z,28.52
2018-08-24T11:26:39.667Z,28.46
2018-08-24T11:29:08.613Z,28.05
2018-08-24T11:31:37.700Z,27.20
2018-08-24T11:34:07.831Z,26.77
2018-08-24T11:36:36.577Z,25.95
2018-08-24T11:39:09.846Z,25.48
2018-08-24T11:41:38.770Z,25.30
2018-08-24T11:44:07.693Z,24.64
2018-08-24T11:46:36.569Z,24.70
2018-08-24T11:49:05.716Z,23.74
2018-08-24T11:51:34.638Z,23.52
2018-08-24T11:54:03.620Z,23.27
2018-08-24T11:56:32.484Z,22.80
2018-08-24T11:59:01.481Z,22.71
2018-08-24T12:01:30.332Z,22.58
2018-08-24T12:04:00.140Z,22.70
2018-08-24T12:06:29.495Z,22.76
2018-08-24T12:09:01.566Z,22.73
2018-08-24T12:11:43.594Z,22.53
2018-08-24T12:14:17.752Z,22.33
2018-08-24T12:16:58.831Z,22.29
2018-08-24T12:19:27.859Z,22.58
2018-08-24T12:21:57.185Z,23.04
2018-08-24T12:24:26.128Z,23.46
2018-08-24T12:26:54.943Z,23.38
2018-08-24T12:29:23.792Z,23.07
2018-08-24T12:31:52.750Z,23.25
2018-08-24T12:34:21.730Z,23.13
2018-08-24T12:36:50.630Z,23.01
2018-08-24T12:39:19.672Z,22.81
2018-08-24T12:41:48.721Z,22.47
2018-08-24T12:44:18.242Z,22.21
2018-08-24T12:46:47.104Z,22.11
2018-08-24T12:49:16.199Z,21.95
2018-08-24T12:51:46.732Z,21.76
2018-08-24T12:54:14.054Z,21.99
2018-08-24T12:56:43.026Z,22.22
2018-08-24T12:59:11.893Z,22.27
2018-08-24T13:01:40.925Z,22.60
2018-08-24T13:04:10.265Z,22.77
2018-08-24T13:06:44.065Z,22.72
2018-08-24T13:09:18.549Z,22.52
2018-08-24T13:11:47.535Z,22.31
2018-08-24T13:14:16.349Z,22.36
2018-08-24T13:16:45.630Z,22.38
2018-08-24T13:19:14.559Z,22.35
2018-08-24T13:21:48.080Z,22.54
2018-08-24T13:24:16.963Z,23.05
2018-08-24T13:26:48.967Z,22.96
2018-08-24T13:29:20.952Z,22.99
2018-08-24T13:31:53.137Z,22.91
2018-08-24T13:34:25.629Z,23.03
2018-08-24T13:36:54.582Z,22.90
2018-08-24T13:39:23.673Z,22.99
2018-08-24T13:41:52.665Z,23.23
2018-08-24T13:44:21.651Z,23.09
2018-08-24T13:46:50.645Z,23.35
2018-08-24T13:49:19.547Z,22.79
2018-08-24T13:51:48.845Z,22.40
2018-08-24T13:54:44.323Z,22.08
2018-08-24T13:57:16.209Z,22.59
2018-08-24T13:59:47.909Z,22.18
2018-08-24T14:02:17.238Z,22.38
2018-08-24T14:04:46.195Z,21.73
2018-08-24T14:07:15.573Z,21.58
2018-08-24T14:09:44.611Z,21.55
2018-08-24T14:12:16.299Z,21.59
2018-08-24T14:14:45.152Z,21.34
2018-08-24T14:17:14.102Z,21.30
2018-08-24T14:19:53.229Z,21.58
2018-08-24T14:22:34.175Z,21.61
2018-08-24T14:25:03.447Z,21.65
2018-08-24T14:27:41.327Z,21.58
2018-08-24T14:30:13.561Z,21.36
2018-08-24T14:32:40.141Z,21.32
2018-08-24T14:35:19.046Z,21.44
2018-08-24T14:37:48.462Z,21.67
2018-08-24T14:40:17.573Z,21.67
2018-08-24T14:42:46.592Z,21.71
2018-08-24T14:45:15.488Z,21.76
2018-08-24T14:47:44.477Z,22.07
2018-08-24T14:50:13.536Z,21.73
2018-08-24T14:52:42.370Z,21.76
2018-08-24T14:55:13.933Z,21.67
2018-08-24T14:57:45.927Z,21.49
2018-08-24T15:00:18.093Z,21.86
2018-08-24T15:02:52.992Z,21.41
2018-08-24T15:05:22.016Z,21.56
2018-08-24T15:07:52.996Z,21.25
2018-08-24T15:10:24.739Z,21.35
2018-08-24T15:12:53.607Z,21.10
2018-08-24T15:15:24.317Z,21.03
2018-08-24T15:17:55.432Z,21.08
2018-08-24T15:20:22.676Z,21.33
2018-08-24T15:22:51.569Z,21.21
2018-08-24T15:25:22.717Z,21.23
2018-08-24T15:27:49.571Z,21.14
2018-08-24T15:30:18.646Z,21.16
2018-08-24T15:32:47.704Z,21.30
2018-08-24T15:35:19.767Z,21.20
2018-08-24T15:37:48.730Z,21.24
2018-08-24T15:40:17.689Z,21.45
2018-08-24T15:42:46.495Z,21.22
2018-08-24T15:45:18.155Z,21.11
2018-08-24T15:47:47.079Z,21.35
2018-08-24T15:50:15.969Z,20.82
2018-08-24T15:52:45.109Z,20.68
2018-08-24T15:55:14.074Z,21.15
2018-08-24T15:57:43.040Z,20.91
2018-08-24T16:00:11.967Z,20.88
2018-08-24T16:02:42.901Z,20.90
2018-08-24T16:05:11.935Z,21.03
2018-08-24T16:07:43.686Z,20.75
2018-08-24T16:10:12.681Z,20.51
2018-08-24T16:12:43.916Z,20.36
2018-08-24T16:15:12.900Z,20.41
2018-08-24T16:17:41.994Z,20.44
2018-08-24T16:20:10.997Z,20.46
2018-08-24T16:22:39.998Z,20.56
2018-08-24T16:25:08.881Z,20.50
2018-08-24T16:27:40.614Z,20.41
2018-08-24T16:30:09.555Z,20.28
2018-08-24T16:32:44.937Z,20.28
2018-08-24T16:35:12.502Z,20.27
2018-08-24T16:37:44.079Z,20.08
2018-08-24T16:40:13.031Z,19.76
2018-08-24T16:42:41.904Z,20.10
2018-08-24T16:45:11.051Z,19.85
2018-08-24T16:47:39.938Z,19.85
2018-08-24T16:50:09.141Z,19.85
2018-08-24T16:52:41.260Z,19.94
2018-08-24T16:55:15.750Z,19.87
2018-08-24T16:57:47.796Z,20.03
2018-08-24T17:00:19.489Z,20.01
2018-08-24T17:02:48.427Z,20.16
2018-08-24T17:05:19.428Z,20.25
2018-08-24T17:07:49.325Z,20.15
2018-08-24T17:10:18.304Z,20.09
2018-08-24T17:12:47.179Z,19.79
2018-08-24T17:15:16.528Z,19.82
2018-08-24T17:17:47.699Z,19.72
2018-08-24T17:20:16.664Z,19.63
2018-08-24T17:22:45.529Z,19.57
2018-08-24T17:25:22.984Z,19.56
2018-08-24T17:27:49.545Z,19.68
2018-08-24T17:30:18.473Z,19.57
2018-08-24T17:32:47.415Z,19.61
2018-08-24T17:35:20.425Z,19.61
2018-08-24T17:37:49.378Z,19.60
2018-08-24T17:40:18.264Z,19.55
2018-08-24T17:42:50.952Z,19.45
2018-08-24T17:45:19.910Z,19.42
2018-08-24T17:50:31.077Z,19.35
2018-08-24T17:53:00.815Z,19.00
2018-08-24T17:55:29.958Z,19.17
2018-08-24T17:57:59.309Z,19.29
2018-08-24T18:00:31.901Z,19.24
2018-08-24T18:03:01.212Z,19.21
2018-08-24T18:05:30.141Z,19.13
2018-08-24T18:07:59.299Z,19.00
2018-08-24T18:10:28.236Z,19.05
2018-08-24T18:12:57.211Z,18.77
2018-08-24T18:15:26.115Z,18.66
2018-08-24T18:17:55.217Z,18.65
2018-08-24T18:20:26.630Z,18.54
2018-08-24T18:22:58.143Z,18.49
2018-08-24T18:25:25.017Z,18.35
2018-08-24T18:28:00.982Z,18.27
2018-08-24T18:30:30.040Z,18.22
2018-08-24T18:32:59.063Z,18.21
2018-08-24T18:35:28.502Z,18.29
2018-08-24T18:38:01.711Z,18.20
2018-08-24T18:40:30.718Z,18.05
2018-08-24T18:43:02.423Z,18.13
2018-08-24T18:45:33.868Z,18.05
2018-08-24T18:48:16.789Z,18.03
2018-08-24T18:50:46.434Z,17.88
2018-08-24T18:53:15.431Z,17.92
2018-08-24T18:55:46.191Z,17.89
2018-08-24T18:58:19.996Z,17.81
2018-08-24T19:00:54.858Z,17.85
2018-08-24T19:03:23.857Z,17.78
2018-08-24T19:05:56.559Z,17.75
2018-08-24T19:08:31.927Z,17.70
2018-08-24T19:11:19.886Z,17.60
2018-08-24T19:13:51.948Z,17.58
2018-08-24T19:16:26.754Z,17.57
2018-08-24T19:19:10.750Z,17.49
2018-08-24T19:21:52.542Z,17.48
2018-08-24T19:24:23.073Z,17.84
2018-08-24T19:26:49.078Z,17.63
2018-08-24T19:29:36.152Z,17.54
2018-08-24T19:32:05.177Z,17.50
2018-08-24T19:34:38.813Z,17.40
2018-08-24T19:37:07.691Z,17.30
2018-08-24T19:39:39.107Z,17.32
2018-08-24T19:42:23.595Z,17.30
2018-08-24T19:44:52.684Z,17.29
2018-08-24T19:47:41.140Z,17.21
2018-08-24T19:50:12.478Z,17.16
2018-08-24T19:52:41.463Z,17.10
2018-08-24T19:55:10.382Z,17.05
2018-08-24T19:57:57.118Z,17.05
2018-08-24T20:00:26.083Z,17.07
2018-08-24T20:02:54.901Z,17.02
2018-08-24T20:05:23.839Z,16.96
2018-08-24T20:08:10.328Z,16.90
2018-08-24T20:10:39.327Z,16.87
2018-08-24T20:13:10.517Z,16.92
2018-08-24T20:15:59.430Z,16.94
2018-08-24T20:18:28.219Z,16.90
2018-08-24T20:20:57.381Z,16.90
2018-08-24T20:23:37.164Z,16.81
2018-08-24T20:26:05.515Z,17.14
2018-08-24T20:28:34.350Z,16.90
2018-08-24T20:31:05.261Z,16.85
2018-08-24T20:33:32.555Z,16.86
2018-08-24T20:36:17.163Z,16.85
2018-08-24T20:38:45.724Z,16.77
2018-08-24T20:41:16.963Z,16.72
2018-08-24T20:43:49.230Z,16.68
2018-08-24T20:46:18.106Z,16.66
2018-08-24T20:48:49.736Z,16.63
2018-08-24T20:51:21.956Z,16.58
2018-08-24T20:53:54.609Z,16.53
2018-08-24T20:56:23.522Z,16.47
2018-08-24T20:58:54.596Z,16.44
2018-08-24T21:01:23.641Z,16.37
2018-08-24T21:03:54.593Z,16.42
2018-08-24T21:06:26.022Z,16.41
2018-08-24T21:08:54.991Z,16.34
2018-08-24T21:11:24.091Z,16.31
2018-08-24T21:13:53.080Z,16.33
2018-08-24T21:16:21.967Z,16.38
2018-08-24T21:18:50.860Z,16.34
2018-08-24T21:21:19.818Z,16.30
2018-08-24T21:23:48.799Z,16.32
2018-08-24T21:26:23.922Z,16.33
2018-08-24T21:28:53.054Z,16.29
2018-08-24T21:31:21.901Z,16.62
2018-08-24T21:33:50.801Z,16.44
2018-08-24T21:36:19.655Z,16.40
2018-08-24T21:38:51.586Z,16.32
2018-08-24T21:41:20.581Z,16.30
2018-08-24T21:43:49.540Z,16.24
2018-08-24T21:46:18.495Z,16.30
2018-08-24T21:48:47.390Z,16.24
2018-08-24T21:51:16.458Z,16.32
2018-08-24T21:53:45.980Z,16.37
2018-08-24T21:56:15.761Z,16.31
2018-08-24T21:58:47.321Z,16.32
2018-08-24T22:01:14.906Z,16.33
2018-08-24T22:03:48.644Z,16.32
2018-08-24T22:06:17.782Z,16.34
2018-08-24T22:08:46.702Z,16.33
2018-08-24T22:11:19.128Z,16.32
2018-08-24T22:13:48.233Z,16.35
2018-08-24T22:16:17.367Z,16.38
2018-08-24T22:18:46.690Z,16.30
2018-08-24T22:21:15.583Z,16.42
2018-08-24T22:23:44.806Z,16.20
2018-08-24T22:26:13.794Z,16.22
2018-08-24T22:28:42.769Z,16.67
2018-08-24T22:31:11.732Z,16.31
2018-08-24T22:33:40.610Z,16.41
2018-08-24T22:36:09.483Z,16.40
2018-08-24T22:38:38.370Z,16.43
2018-08-24T22:41:09.202Z,16.38
2018-08-24T22:43:37.102Z,16.33
2018-08-24T22:46:06.302Z,16.45
2018-08-24T22:48:35.375Z,16.47
2018-08-24T22:51:04.918Z,16.47
2018-08-24T22:53:33.944Z,16.59
2018-08-24T22:56:02.801Z,16.52
2018-08-24T22:58:31.760Z,16.57
2018-08-24T23:01:00.797Z,16.52
2018-08-24T23:03:29.649Z,16.70
2018-08-24T23:05:58.524Z,16.78
2018-08-24T23:08:27.538Z,16.77
2018-08-24T23:10:56.376Z,16.82
2018-08-24T23:13:25.275Z,16.90
2018-08-24T23:15:54.220Z,16.87
2018-08-24T23:18:23.083Z,16.81
2018-08-24T23:20:51.985Z,16.79
2018-08-24T23:23:20.946Z,16.70
2018-08-24T23:25:49.927Z,16.64
2018-08-24T23:28:21.418Z,16.68
2018-08-24T23:30:50.315Z,16.40
2018-08-24T23:33:19.181Z,16.35
2018-08-24T23:35:48.116Z,16.32
2018-08-24T23:38:17.213Z,16.31
2018-08-24T23:40:46.158Z,16.23
2018-08-24T23:43:22.290Z,16.15
2018-08-24T23:45:49.561Z,16.11
2018-08-24T23:48:20.763Z,16.15
2018-08-24T23:50:49.780Z,16.10
2018-08-24T23:53:23.000Z,16.01
2018-08-24T23:55:51.900Z,16.01
2018-08-24T23:58:20.877Z,16.10
